createdAt,value
2022-10-12T00:01:05.643Z,86.75
2022-10-12T00:03:34.253Z,86.51
2022-10-12T00:06:05.634Z,86.44
2022-10-12T00:08:34.790Z,86.02
2022-10-12T00:11:02.985Z,85.99
2022-10-12T00:13:31.611Z,85.91
2022-10-12T00:16:05.709Z,86.22
2022-10-12T00:18:35.071Z,86.34
2022-10-12T00:21:05.033Z,86.03
2022-10-12T00:23:34.801Z,86.28
2022-10-12T00:26:05.088Z,86.29
2022-10-12T00:28:34.033Z,85.57
2022-10-12T00:31:02.623Z,86.40
2022-10-12T00:33:32.253Z,85.92
2022-10-12T00:36:00.395Z,86.32
2022-10-12T00:38:28.899Z,86.38
2022-10-12T00:40:56.954Z,85.95
2022-10-12T00:43:29.562Z,86.23
2022-10-12T00:45:58.571Z,86.33
2022-10-12T00:48:27.581Z,85.89
2022-10-12T00:50:58.823Z,86.52
2022-10-12T00:53:30.674Z,86.02
2022-10-12T00:56:02.798Z,86.15
2022-10-12T00:58:32.223Z,86.64
2022-10-12T01:01:02.603Z,86.21
2022-10-12T01:03:30.982Z,86.35
2022-10-12T01:06:01.627Z,86.82
2022-10-12T01:08:30.568Z,87.15
2022-10-12T01:10:58.835Z,86.81
2022-10-12T01:13:27.436Z,86.76
2022-10-12T01:16:03.267Z,86.16
2022-10-12T01:18:41.853Z,86.33
2022-10-12T01:21:21.432Z,86.62
2022-10-12T01:24:43.996Z,87.17
2022-10-12T01:27:41.096Z,86.79
2022-10-12T01:30:21.882Z,86.41
2022-10-12T01:33:23.068Z,86.69
2022-10-12T01:35:59.744Z,86.67
2022-10-12T01:38:44.156Z,86.54
2022-10-12T01:41:19.307Z,86.81
2022-10-12T01:43:47.910Z,87.09
2022-10-12T01:46:44.451Z,86.59
2022-10-12T01:49:17.157Z,86.94
2022-10-12T01:52:03.758Z,87.39
2022-10-12T01:54:47.918Z,87.25
2022-10-12T01:57:26.508Z,87.14
2022-10-12T02:00:05.295Z,86.90
2022-10-12T02:02:45.730Z,87.29
2022-10-12T02:05:23.850Z,86.55
2022-10-12T02:07:59.203Z,86.96
2022-10-12T02:10:34.317Z,87.34
2022-10-12T02:13:07.342Z,87.35
2022-10-12T02:15:37.761Z,87.27
2022-10-12T02:18:09.638Z,86.90
2022-10-12T02:20:39.951Z,87.39
2022-10-12T02:23:09.530Z,87.07
2022-10-12T02:25:37.615Z,87.30
2022-10-12T02:28:11.198Z,87.41
2022-10-12T02:30:49.267Z,87.07
2022-10-12T02:33:26.876Z,87.33
2022-10-12T02:36:02.031Z,87.30
2022-10-12T02:38:34.557Z,87.07
2022-10-12T02:41:07.279Z,87.30
2022-10-12T02:43:40.229Z,87.78
2022-10-12T02:46:11.569Z,87.45
2022-10-12T02:48:42.745Z,87.41
2022-10-12T02:51:12.247Z,87.33
2022-10-12T02:53:41.130Z,87.74
2022-10-12T02:56:14.145Z,87.68
2022-10-12T02:58:44.896Z,87.36
2022-10-12T03:01:13.783Z,87.63
2022-10-12T03:03:43.380Z,88.08
2022-10-12T03:06:11.624Z,87.65
2022-10-12T03:08:39.763Z,88.13
2022-10-12T03:11:10.380Z,87.64
2022-10-12T03:13:38.586Z,87.28
2022-10-12T03:16:09.695Z,87.91
2022-10-12T03:18:38.690Z,87.75
2022-10-12T03:21:08.430Z,87.42
2022-10-12T03:23:36.534Z,87.47
2022-10-12T03:26:05.445Z,87.44
2022-10-12T03:28:34.162Z,87.59
2022-10-12T03:31:03.396Z,87.02
2022-10-12T03:33:31.494Z,87.29
2022-10-12T03:35:59.751Z,87.51
2022-10-12T03:38:29.280Z,87.64
2022-10-12T03:40:57.362Z,86.78
2022-10-12T03:43:25.632Z,87.38
2022-10-12T03:45:54.193Z,87.80
2022-10-12T03:48:22.331Z,87.37
2022-10-12T03:50:51.131Z,87.45
2022-10-12T03:53:20.351Z,87.36
2022-10-12T03:55:49.981Z,88.07
2022-10-12T03:58:18.693Z,87.52
2022-10-12T04:00:46.795Z,87.45
2022-10-12T04:03:14.876Z,87.75
2022-10-12T04:05:42.950Z,87.38
2022-10-12T04:08:11.363Z,88.11
2022-10-12T04:10:39.438Z,87.80
2022-10-12T04:13:08.872Z,87.33
2022-10-12T04:15:36.945Z,87.54
2022-10-12T04:18:05.434Z,87.48
2022-10-12T04:20:33.542Z,87.54
2022-10-12T04:23:01.965Z,87.35
2022-10-12T04:25:30.390Z,87.66
2022-10-12T04:27:58.718Z,88.04
2022-10-12T04:30:28.268Z,87.62
2022-10-12T04:32:57.244Z,87.68
2022-10-12T04:35:25.326Z,87.90
2022-10-12T04:37:53.478Z,87.22
2022-10-12T04:40:21.529Z,87.59
2022-10-12T04:42:49.631Z,87.26
2022-10-12T04:45:17.803Z,88.26
2022-10-12T04:47:47.175Z,88.01
2022-10-12T04:50:15.957Z,87.11
2022-10-12T04:52:44.095Z,87.72
2022-10-12T04:55:12.185Z,87.62
2022-10-12T04:57:40.820Z,87.79
2022-10-12T05:00:11.273Z,87.57
2022-10-12T05:02:39.354Z,88.19
2022-10-12T05:05:10.067Z,87.29
2022-10-12T05:07:38.320Z,88.01
2022-10-12T05:10:07.799Z,88.11
2022-10-12T05:12:36.096Z,87.52
2022-10-12T05:15:04.643Z,87.83
2022-10-12T05:17:32.765Z,88.48
2022-10-12T05:20:00.786Z,88.59
2022-10-12T05:22:30.226Z,88.13
2022-10-12T05:24:58.337Z,88.17
2022-10-12T05:27:26.429Z,87.83
2022-10-12T05:29:54.532Z,87.52
2022-10-12T05:32:22.669Z,87.99
2022-10-12T05:34:50.693Z,87.63
2022-10-12T05:37:19.563Z,87.76
2022-10-12T05:39:49.739Z,88.65
2022-10-12T05:42:17.813Z,88.35
2022-10-12T05:44:45.962Z,88.79
2022-10-12T05:47:14.044Z,88.76
2022-10-12T05:49:42.281Z,87.54
2022-10-12T05:52:10.446Z,88.02
2022-10-12T05:54:38.722Z,87.98
2022-10-12T05:57:08.175Z,87.62
2022-10-12T05:59:36.457Z,88.79
2022-10-12T06:02:04.557Z,87.93
2022-10-12T06:04:32.767Z,88.97
2022-10-12T06:07:00.887Z,88.27
2022-10-12T06:09:28.941Z,87.75
2022-10-12T06:11:57.071Z,88.34
2022-10-12T06:14:26.483Z,88.07
2022-10-12T06:16:54.671Z,88.67
2022-10-12T06:19:22.992Z,88.85
2022-10-12T06:21:51.018Z,88.67
2022-10-12T06:24:19.116Z,88.55
2022-10-12T06:26:47.209Z,88.50
2022-10-12T06:29:15.248Z,88.56
2022-10-12T06:31:49.003Z,88.68
2022-10-12T06:34:19.530Z,88.87
2022-10-12T06:36:47.586Z,88.97
2022-10-12T06:39:15.721Z,88.99
2022-10-12T06:41:43.788Z,88.88
2022-10-12T06:44:11.913Z,88.59
2022-10-12T06:46:40.018Z,89.08
2022-10-12T06:49:10.302Z,88.35
2022-10-12T06:51:38.454Z,88.97
2022-10-12T06:54:06.593Z,89.63
2022-10-12T06:56:35.078Z,88.94
2022-10-12T06:59:03.173Z,88.79
2022-10-12T07:01:31.302Z,89.09
2022-10-12T07:04:00.912Z,88.51
2022-10-12T07:06:30.572Z,89.01
2022-10-12T07:08:58.821Z,88.92
2022-10-12T07:11:26.980Z,88.93
2022-10-12T07:13:55.050Z,88.92
2022-10-12T07:16:23.229Z,89.15
2022-10-12T07:18:51.354Z,89.10
2022-10-12T07:21:19.423Z,89.57
2022-10-12T07:23:48.861Z,89.41
2022-10-12T07:26:17.046Z,90.08
2022-10-12T07:28:45.431Z,89.41
2022-10-12T07:31:13.562Z,89.24
2022-10-12T07:33:41.695Z,88.89
2022-10-12T07:36:14.242Z,89.19
2022-10-12T07:38:45.243Z,89.41
2022-10-12T07:41:15.718Z,89.49
2022-10-12T07:43:44.177Z,88.61
2022-10-12T07:46:12.982Z,89.54
2022-10-12T07:48:45.723Z,88.94
2022-10-12T07:51:17.197Z,88.76
2022-10-12T07:53:45.510Z,89.33
2022-10-12T07:56:18.763Z,89.20
2022-10-12T07:58:50.898Z,88.45
2022-10-12T08:01:21.238Z,89.19
2022-10-12T08:03:50.236Z,88.62
2022-10-12T08:06:22.114Z,88.89
2022-10-12T08:08:51.035Z,89.30
2022-10-12T08:11:22.012Z,88.74
2022-10-12T08:13:50.217Z,88.64
2022-10-12T08:16:21.706Z,88.57
2022-10-12T08:18:50.166Z,88.71
2022-10-12T08:21:18.990Z,88.46
2022-10-12T08:23:47.903Z,88.03
2022-10-12T08:26:17.177Z,88.52
2022-10-12T08:28:46.735Z,87.69
2022-10-12T08:31:17.614Z,87.62
2022-10-12T08:33:45.819Z,87.48
2022-10-12T08:36:14.651Z,87.63
2022-10-12T08:38:44.235Z,87.23
2022-10-12T08:41:27.546Z,87.07
2022-10-12T08:44:16.773Z,86.84
2022-10-12T08:46:45.045Z,86.48
2022-10-12T08:49:18.898Z,85.99
2022-10-12T08:51:51.526Z,85.78
2022-10-12T08:54:24.147Z,85.25
2022-10-12T08:56:55.007Z,84.64
2022-10-12T08:59:26.186Z,84.45
2022-10-12T09:02:08.882Z,84.14
2022-10-12T09:04:53.472Z,83.49
2022-10-12T09:07:27.361Z,82.89
2022-10-12T09:10:12.186Z,82.23
2022-10-12T09:12:53.960Z,81.98
2022-10-12T09:15:29.010Z,81.38
2022-10-12T09:18:00.442Z,80.36
2022-10-12T09:20:31.931Z,80.13
2022-10-12T09:23:07.581Z,79.29
2022-10-12T09:25:35.713Z,78.61
2022-10-12T09:28:15.838Z,78.34
2022-10-12T09:30:58.541Z,78.26
2022-10-12T09:33:30.211Z,77.36
2022-10-12T09:35:59.108Z,77.02
2022-10-12T09:38:27.330Z,76.16
2022-10-12T09:40:55.406Z,76.01
2022-10-12T09:43:23.589Z,75.70
2022-10-12T09:45:53.522Z,75.68
2022-10-12T09:48:24.649Z,75.12
2022-10-12T09:50:56.455Z,75.03
2022-10-12T09:53:32.666Z,75.04
2022-10-12T09:56:09.721Z,74.84
2022-10-12T09:58:50.802Z,74.57
2022-10-12T10:01:26.198Z,74.04
2022-10-12T10:04:15.650Z,73.99
2022-10-12T10:06:46.712Z,73.45
2022-10-12T10:09:34.979Z,73.21
2022-10-12T10:12:20.710Z,73.60
2022-10-12T10:14:49.032Z,72.79
2022-10-12T10:17:25.607Z,72.91
2022-10-12T10:19:56.234Z,72.02
2022-10-12T10:22:25.721Z,71.99
2022-10-12T10:25:00.247Z,71.60
2022-10-12T10:27:37.491Z,71.78
2022-10-12T10:30:29.794Z,71.31
2022-10-12T10:33:17.591Z,71.31
2022-10-12T10:36:05.958Z,70.34
2022-10-12T10:38:50.066Z,69.99
2022-10-12T10:41:19.895Z,69.55
2022-10-12T10:43:49.958Z,68.99
2022-10-12T10:46:25.280Z,68.73
2022-10-12T10:48:58.382Z,67.93
2022-10-12T10:51:43.586Z,67.77
2022-10-12T10:54:17.834Z,67.30
2022-10-12T10:56:47.654Z,66.74
2022-10-12T10:59:31.412Z,66.98
2022-10-12T11:02:06.717Z,66.45
2022-10-12T11:04:42.941Z,66.67
2022-10-12T11:07:22.651Z,66.19
2022-10-12T11:09:56.062Z,65.95
2022-10-12T11:12:31.542Z,65.68
2022-10-12T11:15:08.890Z,66.04
2022-10-12T11:17:43.065Z,65.02
2022-10-12T11:20:33.309Z,64.95
2022-10-12T11:23:06.505Z,64.26
2022-10-12T11:25:49.227Z,64.32
2022-10-12T11:28:17.976Z,64.18
2022-10-12T11:30:51.893Z,63.34
2022-10-12T11:33:25.096Z,63.09
2022-10-12T11:35:55.935Z,62.53
2022-10-12T11:38:32.077Z,62.26
2022-10-12T11:41:33.733Z,62.37
2022-10-12T11:44:01.971Z,62.02
2022-10-12T11:46:37.193Z,61.90
2022-10-12T11:49:15.961Z,61.82
2022-10-12T11:51:48.278Z,61.64
2022-10-12T11:54:25.309Z,60.92
2022-10-12T11:56:57.089Z,60.40
2022-10-12T11:59:32.523Z,60.36
2022-10-12T12:02:19.129Z,60.54
2022-10-12T12:04:49.331Z,60.05
2022-10-12T12:07:44.200Z,60.10
2022-10-12T12:10:53.246Z,60.02
2022-10-12T12:13:27.224Z,59.53
2022-10-12T12:16:33.374Z,59.17
2022-10-12T12:19:43.058Z,58.82
2022-10-12T12:22:26.381Z,58.57
2022-10-12T12:25:16.942Z,58.48
2022-10-12T12:27:49.558Z,58.10
2022-10-12T12:30:33.490Z,57.53
2022-10-12T12:33:03.539Z,57.04
2022-10-12T12:35:38.131Z,56.05
2022-10-12T12:38:21.199Z,55.98
2022-10-12T12:41:10.389Z,54.65
2022-10-12T12:44:04.671Z,53.08
2022-10-12T12:50:33.210Z,49.62
2022-10-12T12:53:08.058Z,48.26
2022-10-12T12:56:05.473Z,46.67
2022-10-12T12:58:52.689Z,45.12
2022-10-12T13:01:48.274Z,44.39
2022-10-12T13:04:44.700Z,44.58
2022-10-12T13:07:49.196Z,43.13
2022-10-12T13:10:48.989Z,42.27
2022-10-12T13:13:40.103Z,41.70
2022-10-12T13:17:03.569Z,40.87
2022-10-12T13:19:19.935Z,39.43
2022-10-12T13:21:53.253Z,39.22
2022-10-12T13:24:25.819Z,37.87
2022-10-12T13:27:01.730Z,37.32
2022-10-12T13:29:40.771Z,37.72
2022-10-12T13:32:27.101Z,37.40
2022-10-12T13:34:58.130Z,36.38
2022-10-12T13:37:32.447Z,36.90
2022-10-12T13:40:00.833Z,38.47
2022-10-12T13:42:33.573Z,39.49
2022-10-12T13:45:05.115Z,40.20
2022-10-12T13:47:34.684Z,41.40
2022-10-12T13:50:02.911Z,42.25
2022-10-12T13:52:34.030Z,42.87
2022-10-12T13:55:02.496Z,43.69
2022-10-12T13:57:37.957Z,44.21
2022-10-12T14:00:18.855Z,44.97
2022-10-12T14:02:56.786Z,45.46
2022-10-12T14:05:27.716Z,46.37
2022-10-12T14:08:00.277Z,46.87
2022-10-12T14:10:33.289Z,47.01
2022-10-12T14:13:02.663Z,47.30
2022-10-12T14:15:35.824Z,47.42
2022-10-12T14:18:04.898Z,47.58
2022-10-12T14:20:37.223Z,48.42
2022-10-12T14:23:13.142Z,48.35
2022-10-12T14:25:53.935Z,48.45
2022-10-12T14:28:30.338Z,48.48
2022-10-12T14:31:00.038Z,48.70
2022-10-12T14:33:29.218Z,48.64
2022-10-12T14:36:16.877Z,48.73
2022-10-12T14:38:47.490Z,48.74
2022-10-12T14:41:37.582Z,49.45
2022-10-12T14:44:13.787Z,49.54
2022-10-12T14:46:51.746Z,49.67
2022-10-12T14:49:23.425Z,49.34
2022-10-12T14:51:53.160Z,50.14
2022-10-12T14:54:24.351Z,50.47
2022-10-12T14:56:52.435Z,50.50
2022-10-12T14:59:20.687Z,50.92
2022-10-12T15:01:51.438Z,51.02
2022-10-12T15:04:19.857Z,51.05
2022-10-12T15:06:50.909Z,51.16
2022-10-12T15:09:19.328Z,51.25
2022-10-12T15:11:47.373Z,51.32
2022-10-12T15:14:15.447Z,51.18
2022-10-12T15:16:43.517Z,51.35
2022-10-12T15:19:12.929Z,51.17
2022-10-12T15:21:41.045Z,51.45
2022-10-12T15:24:16.245Z,51.65
2022-10-12T15:26:44.313Z,51.81
2022-10-12T15:29:12.494Z,51.90
2022-10-12T15:31:40.564Z,52.30
2022-10-12T15:34:15.253Z,52.29
2022-10-12T15:36:43.629Z,52.50
2022-10-12T15:39:11.926Z,52.56
2022-10-12T15:41:39.969Z,52.86
2022-10-12T15:44:09.609Z,52.83
2022-10-12T15:46:37.749Z,53.38
2022-10-12T15:49:05.800Z,53.59
2022-10-12T15:51:41.520Z,53.66
2022-10-12T15:54:10.759Z,54.10
2022-10-12T15:56:38.826Z,53.99
2022-10-12T15:59:07.598Z,54.52
2022-10-12T16:01:37.861Z,54.86
2022-10-12T16:04:07.366Z,55.27
2022-10-12T16:06:36.763Z,55.40
2022-10-12T16:09:05.019Z,55.80
2022-10-12T16:11:33.480Z,55.89
2022-10-12T16:14:01.779Z,56.20
2022-10-12T16:16:32.001Z,56.73
2022-10-12T16:19:00.077Z,56.75
2022-10-12T16:21:28.272Z,57.00
2022-10-12T16:23:57.723Z,57.48
2022-10-12T16:26:26.959Z,57.88
2022-10-12T16:28:55.246Z,57.62
2022-10-12T16:31:23.383Z,58.06
2022-10-12T16:33:51.544Z,58.60
2022-10-12T16:36:19.626Z,58.93
2022-10-12T16:38:47.823Z,59.03
2022-10-12T16:41:18.631Z,59.69
2022-10-12T16:43:47.337Z,59.41
2022-10-12T16:46:15.434Z,59.73
2022-10-12T16:48:44.456Z,60.22
2022-10-12T16:51:14.745Z,60.04
2022-10-12T16:53:43.844Z,60.35
2022-10-12T16:56:12.100Z,60.92
2022-10-12T16:58:41.745Z,60.87
2022-10-12T17:01:11.922Z,61.46
2022-10-12T17:03:40.175Z,61.20
2022-10-12T17:06:09.209Z,61.80
2022-10-12T17:08:39.239Z,62.02
2022-10-12T17:11:08.952Z,62.02
2022-10-12T17:13:38.392Z,62.20
2022-10-12T17:16:24.239Z,62.32
2022-10-12T17:18:56.816Z,63.22
2022-10-12T17:21:27.274Z,63.72
2022-10-12T17:23:58.052Z,64.03
2022-10-12T17:26:26.308Z,64.26
2022-10-12T17:28:54.900Z,64.16
2022-10-12T17:31:24.386Z,64.61
2022-10-12T17:33:52.479Z,64.37
2022-10-12T17:36:24.405Z,65.01
2022-10-12T17:38:56.346Z,65.42
2022-10-12T17:41:24.890Z,65.56
2022-10-12T17:43:53.274Z,65.88
2022-10-12T17:46:22.684Z,65.93
2022-10-12T17:48:52.485Z,65.86
2022-10-12T17:51:20.782Z,66.47
2022-10-12T17:53:49.295Z,66.91
2022-10-12T17:56:17.651Z,66.75
2022-10-12T17:58:45.921Z,67.45
2022-10-12T18:01:16.406Z,67.79
2022-10-12T18:03:47.011Z,67.82
2022-10-12T18:06:20.220Z,67.98
2022-10-12T18:08:48.925Z,68.07
2022-10-12T18:11:18.549Z,67.67
2022-10-12T18:13:48.923Z,68.07
2022-10-12T18:16:19.635Z,68.34
2022-10-12T18:18:50.600Z,68.98
2022-10-12T18:21:22.746Z,68.99
2022-10-12T18:23:51.501Z,69.14
2022-10-12T18:26:22.157Z,69.91
2022-10-12T18:28:51.890Z,70.01
2022-10-12T18:31:23.216Z,70.05
2022-10-12T18:33:51.503Z,69.60
2022-10-12T18:36:21.959Z,70.35
2022-10-12T18:38:50.206Z,70.00
2022-10-12T18:41:22.908Z,70.58
2022-10-12T18:43:55.111Z,70.51
2022-10-12T18:46:23.324Z,70.74
2022-10-12T18:48:51.515Z,70.31
2022-10-12T18:51:25.268Z,70.82
2022-10-12T18:53:53.400Z,70.65
2022-10-12T18:56:22.693Z,70.88
2022-10-12T18:58:50.997Z,70.59
2022-10-12T19:01:22.049Z,71.10
2022-10-12T19:03:50.664Z,70.77
2022-10-12T19:06:22.493Z,71.18
2022-10-12T19:08:51.615Z,70.87
2022-10-12T19:11:22.562Z,70.73
2022-10-12T19:13:54.674Z,71.05
2022-10-12T19:16:23.402Z,71.29
2022-10-12T19:18:57.451Z,71.26
2022-10-12T19:21:27.195Z,71.18
2022-10-12T19:23:55.718Z,71.54
2022-10-12T19:26:27.024Z,71.10
2022-10-12T19:28:57.252Z,71.41
2022-10-12T19:31:29.321Z,71.40
2022-10-12T19:34:00.053Z,71.83
2022-10-12T19:36:30.221Z,71.81
2022-10-12T19:38:59.970Z,71.97
2022-10-12T19:41:30.841Z,71.85
2022-10-12T19:44:00.159Z,72.00
2022-10-12T19:46:29.091Z,71.79
2022-10-12T19:48:59.402Z,72.13
2022-10-12T19:51:30.803Z,72.13
2022-10-12T19:54:01.813Z,72.18
2022-10-12T19:56:30.979Z,72.28
2022-10-12T19:58:59.659Z,72.22
2022-10-12T20:01:29.742Z,72.47
2022-10-12T20:03:57.843Z,72.42
2022-10-12T20:06:28.778Z,72.75
2022-10-12T20:09:01.368Z,73.18
2022-10-12T20:11:30.107Z,73.31
2022-10-12T20:13:59.247Z,73.71
2022-10-12T20:16:32.431Z,73.95
2022-10-12T20:19:02.903Z,74.37
2022-10-12T20:21:30.979Z,74.23
2022-10-12T20:24:00.543Z,74.56
2022-10-12T20:26:29.035Z,74.64
2022-10-12T20:28:57.183Z,74.93
2022-10-12T20:31:27.363Z,75.01
2022-10-12T20:33:55.963Z,75.05
2022-10-12T20:36:26.721Z,75.04
2022-10-12T20:38:55.104Z,75.46
2022-10-12T20:41:25.360Z,75.72
2022-10-12T20:43:57.166Z,75.67
2022-10-12T20:46:25.893Z,76.25
2022-10-12T20:48:58.870Z,76.39
2022-10-12T20:51:30.282Z,76.39
2022-10-12T20:54:00.760Z,76.36
2022-10-12T20:56:31.038Z,76.70
2022-10-12T20:58:59.634Z,76.96
2022-10-12T21:01:28.325Z,77.42
2022-10-12T21:03:56.814Z,77.22
2022-10-12T21:06:25.138Z,77.48
2022-10-12T21:08:55.840Z,78.07
2022-10-12T21:11:26.080Z,77.67
2022-10-12T21:13:56.236Z,78.27
2022-10-12T21:16:24.766Z,78.39
2022-10-12T21:18:55.306Z,78.17
2022-10-12T21:21:26.922Z,78.50
2022-10-12T21:23:58.013Z,78.49
2022-10-12T21:26:30.320Z,78.72
2022-10-12T21:29:00.821Z,79.67
2022-10-12T21:31:32.620Z,79.37
2022-10-12T21:34:02.488Z,79.60
2022-10-12T21:36:31.861Z,79.46
2022-10-12T21:39:00.052Z,79.13
2022-10-12T21:41:30.600Z,79.64
2022-10-12T21:44:00.264Z,79.44
2022-10-12T21:46:31.591Z,80.08
2022-10-12T21:49:01.158Z,80.40
2022-10-12T21:51:32.026Z,79.94
2022-10-12T21:54:00.368Z,80.39
2022-10-12T21:56:31.297Z,80.33
2022-10-12T21:59:02.705Z,80.36
2022-10-12T22:01:35.268Z,79.70
2022-10-12T22:04:06.410Z,79.87
2022-10-12T22:06:35.373Z,79.71
2022-10-12T22:09:07.211Z,80.22
2022-10-12T22:11:37.250Z,79.82
2022-10-12T22:14:09.756Z,80.04
2022-10-12T22:16:38.206Z,79.84
2022-10-12T22:19:10.774Z,79.86
2022-10-12T22:21:38.874Z,79.31
2022-10-12T22:24:07.911Z,79.51
2022-10-12T22:26:36.238Z,79.79
2022-10-12T22:29:08.595Z,79.79
2022-10-12T22:31:37.447Z,79.69
2022-10-12T22:34:06.322Z,79.45
2022-10-12T22:36:35.224Z,79.56
2022-10-12T22:39:03.902Z,79.68
2022-10-12T22:41:31.976Z,79.18
2022-10-12T22:44:00.058Z,79.02
2022-10-12T22:46:29.822Z,78.94
2022-10-12T22:48:57.926Z,79.32
2022-10-12T22:51:31.514Z,79.16
2022-10-12T22:54:00.536Z,79.46
2022-10-12T22:56:29.154Z,79.29
2022-10-12T22:58:59.102Z,78.92
2022-10-12T23:01:29.478Z,79.00
2022-10-12T23:03:57.725Z,79.40
2022-10-12T23:06:26.209Z,79.07
2022-10-12T23:08:54.673Z,79.38
2022-10-12T23:11:25.699Z,79.31
2022-10-12T23:13:54.545Z,79.08
2022-10-12T23:16:25.256Z,79.10
2022-10-12T23:18:59.276Z,79.07
2022-10-12T23:21:28.858Z,78.73
2022-10-12T23:23:58.178Z,79.09
2022-10-12T23:26:27.892Z,79.01
2022-10-12T23:28:56.669Z,78.71
2022-10-12T23:31:28.809Z,78.96
2022-10-12T23:33:59.843Z,79.03
2022-10-12T23:36:28.497Z,78.82
2022-10-12T23:38:57.107Z,78.96
2022-10-12T23:41:25.214Z,78.93
2022-10-12T23:43:53.340Z,78.96
2022-10-12T23:46:21.426Z,79.12
2022-10-12T23:48:49.634Z,78.85
2022-10-12T23:51:19.129Z,78.85
2022-10-12T23:53:47.265Z,78.82
2022-10-12T23:56:15.515Z,79.00
2022-10-12T23:58:43.768Z,78.96
